sensor_id;sensor_type;location;lat;lon;timestamp;P1;durP1;ratioP1;P2;durP2;ratioP2
10005;SDS011;5042;42.626;23.382;2023-08-31T00:00:49;1.65;;;1.55;;
10005;SDS011;5042;42.626;23.382;2023-08-31T00:03:16;1.85;;;1.60;;
10005;SDS011;5042;42.626;23.382;2023-08-31T00:05:44;1.73;;;1.63;;
10005;SDS011;5042;42.626;23.382;2023-08-31T00:08:11;3.67;;;1.70;;
10005;SDS011;5042;42.626;23.382;2023-08-31T00:10:38;2.40;;;1.73;;
10005;SDS011;5042;42.626;23.382;2023-08-31T00:13:05;3.30;;;1.50;;
10005;SDS011;5042;42.626;23.382;2023-08-31T00:15:33;1.80;;;1.45;;
10005;SDS011;5042;42.626;23.382;2023-08-31T00:18:02;2.08;;;1.40;;
10005;SDS011;5042;42.626;23.382;2023-08-31T00:20:29;1.90;;;1.60;;
10005;SDS011;5042;42.626;23.382;2023-08-31T00:22:58;2.28;;;1.45;;
10005;SDS011;5042;42.626;23.382;2023-08-31T00:25:24;2.88;;;1.63;;
10005;SDS011;5042;42.626;23.382;2023-08-31T00:27:51;4.22;;;1.50;;
10005;SDS011;5042;42.626;23.382;2023-08-31T00:30:20;1.85;;;1.70;;
10005;SDS011;5042;42.626;23.382;2023-08-31T00:32:51;2.20;;;1.55;;
10005;SDS011;5042;42.626;23.382;2023-08-31T00:35:20;1.60;;;1.50;;
10005;SDS011;5042;42.626;23.382;2023-08-31T00:37:48;2.88;;;1.70;;
10005;SDS011;5042;42.626;23.382;2023-08-31T00:40:16;2.78;;;1.40;;
10005;SDS011;5042;42.626;23.382;2023-08-31T00:42:43;2.25;;;1.60;;
10005;SDS011;5042;42.626;23.382;2023-08-31T00:45:10;2.40;;;1.60;;
10005;SDS011;5042;42.626;23.382;2023-08-31T00:47:36;1.85;;;1.42;;
10005;SDS011;5042;42.626;23.382;2023-08-31T00:50:03;2.33;;;1.45;;
10005;SDS011;5042;42.626;23.382;2023-08-31T00:52:34;2.28;;;1.70;;
10005;SDS011;5042;42.626;23.382;2023-08-31T00:55:01;1.77;;;1.52;;
10005;SDS011;5042;42.626;23.382;2023-08-31T00:57:30;1.85;;;1.60;;
10005;SDS011;5042;42.626;23.382;2023-08-31T00:59:57;1.52;;;1.30;;
10005;SDS011;5042;42.626;23.382;2023-08-31T01:02:29;2.47;;;1.50;;
10005;SDS011;5042;42.626;23.382;2023-08-31T01:05:02;1.73;;;1.50;;
10005;SDS011;5042;42.626;23.382;2023-08-31T01:07:41;2.40;;;1.75;;
10005;SDS011;5042;42.626;23.382;2023-08-31T01:10:21;2.30;;;1.73;;
10005;SDS011;5042;42.626;23.382;2023-08-31T01:12:52;2.53;;;1.50;;
10005;SDS011;5042;42.626;23.382;2023-08-31T01:15:23;2.55;;;1.65;;
10005;SDS011;5042;42.626;23.382;2023-08-31T01:17:54;2.83;;;1.60;;
10005;SDS011;5042;42.626;23.382;2023-08-31T01:20:26;3.05;;;1.58;;
10005;SDS011;5042;42.626;23.382;2023-08-31T01:23:00;2.92;;;1.73;;
10005;SDS011;5042;42.626;23.382;2023-08-31T01:25:30;2.67;;;1.77;;
10005;SDS011;5042;42.626;23.382;2023-08-31T01:27:58;2.28;;;1.90;;
10005;SDS011;5042;42.626;23.382;2023-08-31T01:30:29;1.92;;;1.60;;
10005;SDS011;5042;42.626;23.382;2023-08-31T01:32:57;2.22;;;1.80;;
10005;SDS011;5042;42.626;23.382;2023-08-31T01:35:24;4.75;;;1.73;;
10005;SDS011;5042;42.626;23.382;2023-08-31T01:37:52;2.55;;;1.80;;
10005;SDS011;5042;42.626;23.382;2023-08-31T01:40:23;2.22;;;1.73;;
10005;SDS011;5042;42.626;23.382;2023-08-31T01:42:55;3.63;;;1.73;;
10005;SDS011;5042;42.626;23.382;2023-08-31T01:45:22;2.03;;;1.70;;
10005;SDS011;5042;42.626;23.382;2023-08-31T01:47:50;2.95;;;2.00;;
10005;SDS011;5042;42.626;23.382;2023-08-31T01:50:16;2.05;;;1.73;;
10005;SDS011;5042;42.626;23.382;2023-08-31T01:52:43;1.95;;;1.70;;
10005;SDS011;5042;42.626;23.382;2023-08-31T01:55:10;2.05;;;1.85;;
10005;SDS011;5042;42.626;23.382;2023-08-31T01:57:38;3.40;;;1.83;;
10005;SDS011;5042;42.626;23.382;2023-08-31T02:00:07;3.08;;;1.67;;
10005;SDS011;5042;42.626;23.382;2023-08-31T02:02:36;2.70;;;1.70;;
10005;SDS011;5042;42.626;23.382;2023-08-31T02:05:03;2.45;;;1.60;;
10005;SDS011;5042;42.626;23.382;2023-08-31T02:07:30;1.65;;;1.55;;
10005;SDS011;5042;42.626;23.382;2023-08-31T02:09:56;2.83;;;1.48;;
10005;SDS011;5042;42.626;23.382;2023-08-31T02:12:23;2.63;;;1.75;;
10005;SDS011;5042;42.626;23.382;2023-08-31T02:14:50;2.30;;;1.75;;
10005;SDS011;5042;42.626;23.382;2023-08-31T02:17:18;1.98;;;1.50;;
10005;SDS011;5042;42.626;23.382;2023-08-31T02:19:45;3.97;;;1.77;;
10005;SDS011;5042;42.626;23.382;2023-08-31T02:22:11;1.83;;;1.63;;
10005;SDS011;5042;42.626;23.382;2023-08-31T02:24:38;2.20;;;1.70;;
10005;SDS011;5042;42.626;23.382;2023-08-31T02:27:05;1.80;;;1.70;;
10005;SDS011;5042;42.626;23.382;2023-08-31T02:29:31;1.95;;;1.63;;
10005;SDS011;5042;42.626;23.382;2023-08-31T02:31:58;1.80;;;1.38;;
10005;SDS011;5042;42.626;23.382;2023-08-31T02:34:26;3.63;;;1.63;;
10005;SDS011;5042;42.626;23.382;2023-08-31T02:36:53;4.32;;;1.40;;
10005;SDS011;5042;42.626;23.382;2023-08-31T02:39:20;3.13;;;1.60;;
10005;SDS011;5042;42.626;23.382;2023-08-31T02:41:46;2.30;;;1.33;;
10005;SDS011;5042;42.626;23.382;2023-08-31T02:44:13;3.15;;;1.80;;
10005;SDS011;5042;42.626;23.382;2023-08-31T02:46:40;2.35;;;1.40;;
10005;SDS011;5042;42.626;23.382;2023-08-31T02:49:06;2.22;;;1.52;;
10005;SDS011;5042;42.626;23.382;2023-08-31T02:51:34;3.25;;;1.60;;
10005;SDS011;5042;42.626;23.382;2023-08-31T02:54:01;2.83;;;1.67;;
10005;SDS011;5042;42.626;23.382;2023-08-31T02:56:28;1.90;;;1.60;;
10005;SDS011;5042;42.626;23.382;2023-08-31T02:58:55;1.88;;;1.52;;
10005;SDS011;5042;42.626;23.382;2023-08-31T03:01:21;1.63;;;1.50;;
10005;SDS011;5042;42.626;23.382;2023-08-31T03:03:49;3.33;;;2.10;;
10005;SDS011;5042;42.626;23.382;2023-08-31T03:06:16;2.33;;;1.48;;
10005;SDS011;5042;42.626;23.382;2023-08-31T03:08:44;1.65;;;1.50;;
10005;SDS011;5042;42.626;23.382;2023-08-31T03:11:11;2.55;;;1.60;;
10005;SDS011;5042;42.626;23.382;2023-08-31T03:13:39;3.25;;;1.80;;
10005;SDS011;5042;42.626;23.382;2023-08-31T03:16:07;2.22;;;1.65;;
10005;SDS011;5042;42.626;23.382;2023-08-31T03:18:33;3.60;;;2.13;;
10005;SDS011;5042;42.626;23.382;2023-08-31T03:21:00;3.60;;;1.60;;
10005;SDS011;5042;42.626;23.382;2023-08-31T03:23:29;3.28;;;1.60;;
10005;SDS011;5042;42.626;23.382;2023-08-31T03:25:57;2.35;;;1.60;;
10005;SDS011;5042;42.626;23.382;2023-08-31T03:28:23;1.70;;;1.40;;
10005;SDS011;5042;42.626;23.382;2023-08-31T03:30:59;2.38;;;1.63;;
10005;SDS011;5042;42.626;23.382;2023-08-31T03:33:26;3.08;;;1.52;;
10005;SDS011;5042;42.626;23.382;2023-08-31T03:35:54;3.85;;;1.83;;
10005;SDS011;5042;42.626;23.382;2023-08-31T03:38:25;3.53;;;1.50;;
10005;SDS011;5042;42.626;23.382;2023-08-31T03:40:52;1.77;;;1.67;;
10005;SDS011;5042;42.626;23.382;2023-08-31T03:43:21;6.05;;;2.03;;
10005;SDS011;5042;42.626;23.382;2023-08-31T03:45:48;2.47;;;2.13;;
10005;SDS011;5042;42.626;23.382;2023-08-31T03:48:20;2.53;;;2.15;;
10005;SDS011;5042;42.626;23.382;2023-08-31T03:50:48;2.33;;;1.80;;
10005;SDS011;5042;42.626;23.382;2023-08-31T03:53:15;2.58;;;1.65;;
10005;SDS011;5042;42.626;23.382;2023-08-31T03:55:42;6.45;;;2.28;;
10005;SDS011;5042;42.626;23.382;2023-08-31T03:58:08;3.40;;;1.92;;
10005;SDS011;5042;42.626;23.382;2023-08-31T04:00:37;2.67;;;1.77;;
10005;SDS011;5042;42.626;23.382;2023-08-31T04:03:04;2.65;;;1.60;;
10005;SDS011;5042;42.626;23.382;2023-08-31T04:05:31;3.97;;;1.85;;
10005;SDS011;5042;42.626;23.382;2023-08-31T04:07:59;2.42;;;1.65;;
10005;SDS011;5042;42.626;23.382;2023-08-31T04:10:25;2.72;;;1.63;;
10005;SDS011;5042;42.626;23.382;2023-08-31T04:12:52;3.17;;;1.70;;
10005;SDS011;5042;42.626;23.382;2023-08-31T04:15:19;1.45;;;1.30;;
10005;SDS011;5042;42.626;23.382;2023-08-31T04:17:47;2.17;;;1.83;;
10005;SDS011;5042;42.626;23.382;2023-08-31T04:20:15;1.90;;;1.67;;
10005;SDS011;5042;42.626;23.382;2023-08-31T04:22:41;1.88;;;1.77;;
10005;SDS011;5042;42.626;23.382;2023-08-31T04:25:08;3.65;;;1.92;;
10005;SDS011;5042;42.626;23.382;2023-08-31T04:27:35;1.70;;;1.60;;
10005;SDS011;5042;42.626;23.382;2023-08-31T04:30:04;3.47;;;1.70;;
10005;SDS011;5042;42.626;23.382;2023-08-31T04:32:33;2.05;;;1.88;;
10005;SDS011;5042;42.626;23.382;2023-08-31T04:35:01;2.70;;;1.98;;
10005;SDS011;5042;42.626;23.382;2023-08-31T04:37:30;2.72;;;1.80;;
10005;SDS011;5042;42.626;23.382;2023-08-31T04:39:56;2.00;;;1.75;;
10005;SDS011;5042;42.626;23.382;2023-08-31T04:42:24;2.05;;;1.77;;
10005;SDS011;5042;42.626;23.382;2023-08-31T04:44:50;3.17;;;1.98;;
10005;SDS011;5042;42.626;23.382;2023-08-31T04:47:17;3.88;;;1.80;;
10005;SDS011;5042;42.626;23.382;2023-08-31T04:49:44;2.90;;;2.05;;
10005;SDS011;5042;42.626;23.382;2023-08-31T04:52:12;2.08;;;1.88;;
10005;SDS011;5042;42.626;23.382;2023-08-31T04:54:39;2.65;;;1.88;;
10005;SDS011;5042;42.626;23.382;2023-08-31T04:57:05;1.92;;;1.63;;
10005;SDS011;5042;42.626;23.382;2023-08-31T04:59:32;2.03;;;1.70;;
10005;SDS011;5042;42.626;23.382;2023-08-31T05:01:59;2.92;;;2.13;;
10005;SDS011;5042;42.626;23.382;2023-08-31T05:04:25;3.70;;;2.10;;
10005;SDS011;5042;42.626;23.382;2023-08-31T05:06:53;3.45;;;2.08;;
10005;SDS011;5042;42.626;23.382;2023-08-31T05:09:21;2.17;;;1.58;;
10005;SDS011;5042;42.626;23.382;2023-08-31T05:11:50;4.35;;;2.00;;
10005;SDS011;5042;42.626;23.382;2023-08-31T05:14:16;2.58;;;2.20;;
10005;SDS011;5042;42.626;23.382;2023-08-31T05:16:43;4.40;;;1.80;;
10005;SDS011;5042;42.626;23.382;2023-08-31T05:19:10;5.65;;;1.83;;
10005;SDS011;5042;42.626;23.382;2023-08-31T05:21:36;2.80;;;2.00;;
10005;SDS011;5042;42.626;23.382;2023-08-31T05:24:03;4.15;;;2.00;;
10005;SDS011;5042;42.626;23.382;2023-08-31T05:26:32;2.47;;;1.70;;
10005;SDS011;5042;42.626;23.382;2023-08-31T05:28:59;8.05;;;1.90;;
10005;SDS011;5042;42.626;23.382;2023-08-31T05:31:25;4.03;;;1.73;;
10005;SDS011;5042;42.626;23.382;2023-08-31T05:33:52;3.40;;;1.80;;
10005;SDS011;5042;42.626;23.382;2023-08-31T05:36:19;4.30;;;1.50;;
10005;SDS011;5042;42.626;23.382;2023-08-31T05:38:45;4.65;;;2.10;;
10005;SDS011;5042;42.626;23.382;2023-08-31T05:41:12;9.07;;;1.95;;
10005;SDS011;5042;42.626;23.382;2023-08-31T05:43:40;3.63;;;1.88;;
10005;SDS011;5042;42.626;23.382;2023-08-31T05:46:07;2.22;;;1.63;;
10005;SDS011;5042;42.626;23.382;2023-08-31T05:48:33;3.92;;;1.98;;
10005;SDS011;5042;42.626;23.382;2023-08-31T05:51:01;4.30;;;1.77;;
10005;SDS011;5042;42.626;23.382;2023-08-31T05:53:28;3.35;;;1.65;;
10005;SDS011;5042;42.626;23.382;2023-08-31T05:55:56;4.53;;;1.30;;
10005;SDS011;5042;42.626;23.382;2023-08-31T05:58:28;2.75;;;1.40;;
10005;SDS011;5042;42.626;23.382;2023-08-31T06:00:57;1.20;;;1.00;;
10005;SDS011;5042;42.626;23.382;2023-08-31T06:03:24;1.80;;;1.67;;
10005;SDS011;5042;42.626;23.382;2023-08-31T06:05:51;4.00;;;1.15;;
10005;SDS011;5042;42.626;23.382;2023-08-31T06:08:18;1.55;;;1.30;;
10005;SDS011;5042;42.626;23.382;2023-08-31T06:10:44;4.35;;;1.50;;
10005;SDS011;5042;42.626;23.382;2023-08-31T06:13:11;2.00;;;1.30;;
10005;SDS011;5042;42.626;23.382;2023-08-31T06:15:38;4.55;;;2.08;;
10005;SDS011;5042;42.626;23.382;2023-08-31T06:18:06;2.28;;;1.75;;
10005;SDS011;5042;42.626;23.382;2023-08-31T06:20:33;1.80;;;1.60;;
10005;SDS011;5042;42.626;23.382;2023-08-31T06:23:00;2.28;;;1.33;;
10005;SDS011;5042;42.626;23.382;2023-08-31T06:25:26;1.85;;;1.30;;
10005;SDS011;5042;42.626;23.382;2023-08-31T06:27:53;3.13;;;1.60;;
10005;SDS011;5042;42.626;23.382;2023-08-31T06:30:20;4.50;;;2.10;;
10005;SDS011;5042;42.626;23.382;2023-08-31T06:32:47;3.08;;;1.77;;
10005;SDS011;5042;42.626;23.382;2023-08-31T06:35:16;3.40;;;1.90;;
10005;SDS011;5042;42.626;23.382;2023-08-31T06:37:44;6.90;;;1.65;;
10005;SDS011;5042;42.626;23.382;2023-08-31T06:40:11;3.35;;;1.77;;
10005;SDS011;5042;42.626;23.382;2023-08-31T06:42:38;4.35;;;2.10;;
10005;SDS011;5042;42.626;23.382;2023-08-31T06:45:06;2.78;;;2.00;;
10005;SDS011;5042;42.626;23.382;2023-08-31T06:47:34;1.55;;;1.25;;
10005;SDS011;5042;42.626;23.382;2023-08-31T06:50:01;1.50;;;1.17;;
10005;SDS011;5042;42.626;23.382;2023-08-31T06:52:30;1.13;;;0.98;;
10005;SDS011;5042;42.626;23.382;2023-08-31T06:54:56;1.02;;;0.95;;
10005;SDS011;5042;42.626;23.382;2023-08-31T06:57:23;1.77;;;1.10;;
10005;SDS011;5042;42.626;23.382;2023-08-31T06:59:50;1.33;;;1.23;;
10005;SDS011;5042;42.626;23.382;2023-08-31T07:02:17;2.22;;;1.55;;
10005;SDS011;5042;42.626;23.382;2023-08-31T07:04:45;1.58;;;1.20;;
10005;SDS011;5042;42.626;23.382;2023-08-31T07:07:13;3.75;;;1.63;;
10005;SDS011;5042;42.626;23.382;2023-08-31T07:09:41;2.28;;;1.20;;
10005;SDS011;5042;42.626;23.382;2023-08-31T07:12:09;2.58;;;1.67;;
10005;SDS011;5042;42.626;23.382;2023-08-31T07:14:35;2.15;;;1.55;;
10005;SDS011;5042;42.626;23.382;2023-08-31T07:17:02;2.17;;;1.58;;
10005;SDS011;5042;42.626;23.382;2023-08-31T07:19:29;2.28;;;1.50;;
10005;SDS011;5042;42.626;23.382;2023-08-31T07:21:56;2.78;;;1.50;;
10005;SDS011;5042;42.626;23.382;2023-08-31T07:24:24;1.70;;;1.50;;
10005;SDS011;5042;42.626;23.382;2023-08-31T07:26:53;5.47;;;1.92;;
10005;SDS011;5042;42.626;23.382;2023-08-31T07:29:19;2.33;;;1.55;;
10005;SDS011;5042;42.626;23.382;2023-08-31T07:31:46;3.17;;;1.90;;
10005;SDS011;5042;42.626;23.382;2023-08-31T07:34:13;1.85;;;1.73;;
10005;SDS011;5042;42.626;23.382;2023-08-31T07:36:39;9.25;;;2.20;;
10005;SDS011;5042;42.626;23.382;2023-08-31T07:39:07;2.30;;;1.88;;
10005;SDS011;5042;42.626;23.382;2023-08-31T07:41:34;4.30;;;2.08;;
10005;SDS011;5042;42.626;23.382;2023-08-31T07:44:02;2.13;;;1.60;;
10005;SDS011;5042;42.626;23.382;2023-08-31T07:46:29;2.72;;;2.10;;
10005;SDS011;5042;42.626;23.382;2023-08-31T07:48:55;3.83;;;2.00;;
10005;SDS011;5042;42.626;23.382;2023-08-31T07:51:22;6.05;;;2.60;;
10005;SDS011;5042;42.626;23.382;2023-08-31T07:53:51;2.83;;;2.08;;
10005;SDS011;5042;42.626;23.382;2023-08-31T07:56:17;2.65;;;2.03;;
10005;SDS011;5042;42.626;23.382;2023-08-31T07:58:44;2.63;;;2.42;;
10005;SDS011;5042;42.626;23.382;2023-08-31T08:01:12;5.15;;;3.65;;
10005;SDS011;5042;42.626;23.382;2023-08-31T08:03:39;5.25;;;3.10;;
10005;SDS011;5042;42.626;23.382;2023-08-31T08:06:06;5.68;;;3.92;;
10005;SDS011;5042;42.626;23.382;2023-08-31T08:08:33;6.90;;;2.42;;
10005;SDS011;5042;42.626;23.382;2023-08-31T08:11:00;3.08;;;2.00;;
10005;SDS011;5042;42.626;23.382;2023-08-31T08:13:27;4.10;;;2.47;;
10005;SDS011;5042;42.626;23.382;2023-08-31T08:15:54;4.13;;;2.40;;
10005;SDS011;5042;42.626;23.382;2023-08-31T08:18:22;3.30;;;2.33;;
10005;SDS011;5042;42.626;23.382;2023-08-31T08:20:50;7.20;;;2.95;;
10005;SDS011;5042;42.626;23.382;2023-08-31T08:23:17;2.60;;;1.92;;
10005;SDS011;5042;42.626;23.382;2023-08-31T08:25:44;2.15;;;1.92;;
10005;SDS011;5042;42.626;23.382;2023-08-31T08:28:10;1.58;;;1.48;;
10005;SDS011;5042;42.626;23.382;2023-08-31T08:30:37;2.10;;;1.90;;
10005;SDS011;5042;42.626;23.382;2023-08-31T08:33:04;3.55;;;2.25;;
10005;SDS011;5042;42.626;23.382;2023-08-31T08:35:32;3.47;;;2.10;;
10005;SDS011;5042;42.626;23.382;2023-08-31T08:37:59;2.67;;;1.70;;
10005;SDS011;5042;42.626;23.382;2023-08-31T08:40:26;1.73;;;1.63;;
10005;SDS011;5042;42.626;23.382;2023-08-31T08:42:53;3.85;;;1.77;;
10005;SDS011;5042;42.626;23.382;2023-08-31T08:45:19;2.20;;;1.83;;
10005;SDS011;5042;42.626;23.382;2023-08-31T08:47:50;1.95;;;1.75;;
10005;SDS011;5042;42.626;23.382;2023-08-31T08:50:18;4.60;;;2.30;;
10005;SDS011;5042;42.626;23.382;2023-08-31T08:52:49;3.28;;;2.15;;
10005;SDS011;5042;42.626;23.382;2023-08-31T08:55:18;4.00;;;2.05;;
10005;SDS011;5042;42.626;23.382;2023-08-31T08:57:47;3.65;;;2.17;;
10005;SDS011;5042;42.626;23.382;2023-08-31T09:00:14;3.15;;;2.13;;
10005;SDS011;5042;42.626;23.382;2023-08-31T09:02:41;2.67;;;2.13;;
10005;SDS011;5042;42.626;23.382;2023-08-31T09:05:08;3.80;;;2.00;;
10005;SDS011;5042;42.626;23.382;2023-08-31T09:07:35;3.28;;;2.15;;
10005;SDS011;5042;42.626;23.382;2023-08-31T09:10:04;2.95;;;2.20;;
10005;SDS011;5042;42.626;23.382;2023-08-31T09:12:32;6.38;;;2.13;;
10005;SDS011;5042;42.626;23.382;2023-08-31T09:15:04;2.75;;;2.28;;
10005;SDS011;5042;42.626;23.382;2023-08-31T09:17:38;2.05;;;1.85;;
10005;SDS011;5042;42.626;23.382;2023-08-31T09:20:06;3.67;;;1.90;;
10005;SDS011;5042;42.626;23.382;2023-08-31T09:22:34;2.72;;;2.03;;
10005;SDS011;5042;42.626;23.382;2023-08-31T09:25:01;4.55;;;2.05;;
10005;SDS011;5042;42.626;23.382;2023-08-31T09:27:30;2.33;;;1.80;;
10005;SDS011;5042;42.626;23.382;2023-08-31T09:29:58;2.65;;;1.92;;
10005;SDS011;5042;42.626;23.382;2023-08-31T09:32:25;3.78;;;2.15;;
10005;SDS011;5042;42.626;23.382;2023-08-31T09:34:51;3.72;;;2.63;;
10005;SDS011;5042;42.626;23.382;2023-08-31T09:37:18;2.58;;;2.17;;
10005;SDS011;5042;42.626;23.382;2023-08-31T09:39:45;2.45;;;2.25;;
10005;SDS011;5042;42.626;23.382;2023-08-31T09:42:11;2.78;;;2.28;;
10005;SDS011;5042;42.626;23.382;2023-08-31T09:44:42;3.97;;;2.47;;
10005;SDS011;5042;42.626;23.382;2023-08-31T09:47:09;2.50;;;2.30;;
10005;SDS011;5042;42.626;23.382;2023-08-31T09:49:37;4.13;;;1.80;;
10005;SDS011;5042;42.626;23.382;2023-08-31T09:52:07;3.40;;;2.13;;
10005;SDS011;5042;42.626;23.382;2023-08-31T09:54:35;2.45;;;1.90;;
10005;SDS011;5042;42.626;23.382;2023-08-31T09:57:03;3.83;;;2.42;;
10005;SDS011;5042;42.626;23.382;2023-08-31T09:59:31;2.63;;;2.05;;
10005;SDS011;5042;42.626;23.382;2023-08-31T10:02:00;2.65;;;2.10;;
10005;SDS011;5042;42.626;23.382;2023-08-31T10:04:29;1.85;;;1.67;;
10005;SDS011;5042;42.626;23.382;2023-08-31T10:06:58;2.38;;;2.00;;
10005;SDS011;5042;42.626;23.382;2023-08-31T10:09:25;1.88;;;1.75;;
10005;SDS011;5042;42.626;23.382;2023-08-31T10:11:54;3.65;;;1.98;;
10005;SDS011;5042;42.626;23.382;2023-08-31T10:14:20;2.38;;;1.73;;
10005;SDS011;5042;42.626;23.382;2023-08-31T10:16:48;3.97;;;2.65;;
10005;SDS011;5042;42.626;23.382;2023-08-31T10:19:19;5.93;;;2.70;;
10005;SDS011;5042;42.626;23.382;2023-08-31T10:21:46;2.60;;;2.20;;
10005;SDS011;5042;42.626;23.382;2023-08-31T10:24:12;2.92;;;1.98;;
10005;SDS011;5042;42.626;23.382;2023-08-31T10:26:39;3.45;;;2.42;;
10005;SDS011;5042;42.626;23.382;2023-08-31T10:29:06;3.45;;;2.20;;
10005;SDS011;5042;42.626;23.382;2023-08-31T10:31:51;2.58;;;1.98;;
10005;SDS011;5042;42.626;23.382;2023-08-31T10:34:20;2.70;;;2.33;;
10005;SDS011;5042;42.626;23.382;2023-08-31T10:37:01;4.75;;;2.50;;
10005;SDS011;5042;42.626;23.382;2023-08-31T10:39:28;2.95;;;2.08;;
10005;SDS011;5042;42.626;23.382;2023-08-31T10:42:04;4.65;;;2.70;;
10005;SDS011;5042;42.626;23.382;2023-08-31T10:44:30;2.75;;;2.42;;
10005;SDS011;5042;42.626;23.382;2023-08-31T10:46:59;2.30;;;1.90;;
10005;SDS011;5042;42.626;23.382;2023-08-31T10:49:30;3.70;;;2.67;;
10005;SDS011;5042;42.626;23.382;2023-08-31T10:52:13;2.70;;;2.15;;
10005;SDS011;5042;42.626;23.382;2023-08-31T10:54:42;3.17;;;2.05;;
10005;SDS011;5042;42.626;23.382;2023-08-31T10:57:08;2.42;;;2.22;;
10005;SDS011;5042;42.626;23.382;2023-08-31T10:59:40;2.03;;;1.60;;
10005;SDS011;5042;42.626;23.382;2023-08-31T11:02:26;2.40;;;2.20;;
10005;SDS011;5042;42.626;23.382;2023-08-31T11:05:02;3.25;;;2.20;;
10005;SDS011;5042;42.626;23.382;2023-08-31T11:07:33;2.13;;;1.92;;
10005;SDS011;5042;42.626;23.382;2023-08-31T11:10:07;3.17;;;2.38;;
10005;SDS011;5042;42.626;23.382;2023-08-31T11:12:36;2.45;;;1.90;;
10005;SDS011;5042;42.626;23.382;2023-08-31T11:15:03;3.38;;;2.13;;
10005;SDS011;5042;42.626;23.382;2023-08-31T11:17:30;3.10;;;2.20;;
10005;SDS011;5042;42.626;23.382;2023-08-31T11:20:00;2.67;;;2.08;;
10005;SDS011;5042;42.626;23.382;2023-08-31T11:22:30;3.97;;;2.15;;
10005;SDS011;5042;42.626;23.382;2023-08-31T11:24:57;2.70;;;2.05;;
10005;SDS011;5042;42.626;23.382;2023-08-31T11:27:24;3.85;;;2.00;;
10005;SDS011;5042;42.626;23.382;2023-08-31T11:29:51;2.90;;;1.85;;
10005;SDS011;5042;42.626;23.382;2023-08-31T11:32:18;2.88;;;1.80;;
10005;SDS011;5042;42.626;23.382;2023-08-31T11:34:44;2.33;;;1.88;;
10005;SDS011;5042;42.626;23.382;2023-08-31T11:37:13;5.15;;;2.13;;
10005;SDS011;5042;42.626;23.382;2023-08-31T11:39:42;2.35;;;2.00;;
10005;SDS011;5042;42.626;23.382;2023-08-31T11:42:15;2.90;;;1.80;;
10005;SDS011;5042;42.626;23.382;2023-08-31T11:44:43;1.85;;;1.63;;
10005;SDS011;5042;42.626;23.382;2023-08-31T11:47:11;2.58;;;2.03;;
10005;SDS011;5042;42.626;23.382;2023-08-31T11:49:38;2.15;;;1.88;;
10005;SDS011;5042;42.626;23.382;2023-08-31T11:52:06;3.38;;;2.10;;
10005;SDS011;5042;42.626;23.382;2023-08-31T11:54:34;2.70;;;1.90;;
10005;SDS011;5042;42.626;23.382;2023-08-31T11:57:03;1.55;;;1.45;;
10005;SDS011;5042;42.626;23.382;2023-08-31T11:59:34;2.10;;;1.90;;
10005;SDS011;5042;42.626;23.382;2023-08-31T12:02:01;1.70;;;1.60;;
10005;SDS011;5042;42.626;23.382;2023-08-31T12:04:28;1.60;;;1.30;;
10005;SDS011;5042;42.626;23.382;2023-08-31T12:07:00;2.53;;;1.90;;
10005;SDS011;5042;42.626;23.382;2023-08-31T12:09:29;2.92;;;1.98;;
10005;SDS011;5042;42.626;23.382;2023-08-31T12:11:57;2.63;;;2.00;;
10005;SDS011;5042;42.626;23.382;2023-08-31T12:14:25;1.73;;;1.55;;
10005;SDS011;5042;42.626;23.382;2023-08-31T12:17:00;2.80;;;1.80;;
10005;SDS011;5042;42.626;23.382;2023-08-31T12:19:28;1.85;;;1.70;;
10005;SDS011;5042;42.626;23.382;2023-08-31T12:21:55;1.50;;;1.40;;
10005;SDS011;5042;42.626;23.382;2023-08-31T12:24:22;2.33;;;1.50;;
10005;SDS011;5042;42.626;23.382;2023-08-31T12:26:49;2.40;;;1.80;;
10005;SDS011;5042;42.626;23.382;2023-08-31T12:29:20;3.38;;;2.17;;
10005;SDS011;5042;42.626;23.382;2023-08-31T12:31:47;2.55;;;1.70;;
10005;SDS011;5042;42.626;23.382;2023-08-31T12:34:14;2.65;;;1.73;;
10005;SDS011;5042;42.626;23.382;2023-08-31T12:36:41;1.58;;;1.48;;
10005;SDS011;5042;42.626;23.382;2023-08-31T12:39:07;1.40;;;1.30;;
10005;SDS011;5042;42.626;23.382;2023-08-31T12:41:35;2.45;;;1.45;;
10005;SDS011;5042;42.626;23.382;2023-08-31T12:44:02;6.22;;;1.85;;
10005;SDS011;5042;42.626;23.382;2023-08-31T12:46:31;2.35;;;1.40;;
10005;SDS011;5042;42.626;23.382;2023-08-31T12:48:58;2.67;;;1.50;;
10005;SDS011;5042;42.626;23.382;2023-08-31T12:51:26;2.22;;;1.70;;
10005;SDS011;5042;42.626;23.382;2023-08-31T12:53:52;1.90;;;1.75;;
10005;SDS011;5042;42.626;23.382;2023-08-31T12:56:19;2.63;;;1.70;;
10005;SDS011;5042;42.626;23.382;2023-08-31T12:58:48;2.85;;;1.77;;
10005;SDS011;5042;42.626;23.382;2023-08-31T13:01:15;1.45;;;1.33;;
10005;SDS011;5042;42.626;23.382;2023-08-31T13:03:43;1.75;;;1.63;;
10005;SDS011;5042;42.626;23.382;2023-08-31T13:06:10;2.15;;;1.65;;
10005;SDS011;5042;42.626;23.382;2023-08-31T13:08:37;1.38;;;1.27;;
10005;SDS011;5042;42.626;23.382;2023-08-31T13:11:03;2.95;;;1.42;;
10005;SDS011;5042;42.626;23.382;2023-08-31T13:13:30;2.45;;;1.65;;
10005;SDS011;5042;42.626;23.382;2023-08-31T13:15:58;2.50;;;1.83;;
10005;SDS011;5042;42.626;23.382;2023-08-31T13:18:24;1.80;;;1.65;;
10005;SDS011;5042;42.626;23.382;2023-08-31T13:20:53;1.70;;;1.58;;
10005;SDS011;5042;42.626;23.382;2023-08-31T13:23:20;1.52;;;1.42;;
10005;SDS011;5042;42.626;23.382;2023-08-31T13:25:48;2.67;;;2.00;;
10005;SDS011;5042;42.626;23.382;2023-08-31T13:28:15;2.15;;;1.45;;
10005;SDS011;5042;42.626;23.382;2023-08-31T13:30:42;2.30;;;1.83;;
10005;SDS011;5042;42.626;23.382;2023-08-31T13:33:08;1.50;;;1.40;;
10005;SDS011;5042;42.626;23.382;2023-08-31T13:35:35;2.55;;;1.60;;
10005;SDS011;5042;42.626;23.382;2023-08-31T13:38:04;3.55;;;1.50;;
10005;SDS011;5042;42.626;23.382;2023-08-31T13:40:33;1.80;;;1.45;;
10005;SDS011;5042;42.626;23.382;2023-08-31T13:43:00;2.70;;;1.50;;
10005;SDS011;5042;42.626;23.382;2023-08-31T13:45:28;1.60;;;1.40;;
10005;SDS011;5042;42.626;23.382;2023-08-31T13:47:55;1.63;;;1.48;;
10005;SDS011;5042;42.626;23.382;2023-08-31T13:50:24;1.98;;;1.52;;
10005;SDS011;5042;42.626;23.382;2023-08-31T13:52:51;3.67;;;1.63;;
10005;SDS011;5042;42.626;23.382;2023-08-31T13:55:19;1.83;;;1.50;;
10005;SDS011;5042;42.626;23.382;2023-08-31T13:57:46;2.50;;;2.08;;
10005;SDS011;5042;42.626;23.382;2023-08-31T14:00:13;2.50;;;1.58;;
10005;SDS011;5042;42.626;23.382;2023-08-31T14:02:40;2.33;;;1.48;;
10005;SDS011;5042;42.626;23.382;2023-08-31T14:05:08;2.25;;;1.73;;
10005;SDS011;5042;42.626;23.382;2023-08-31T14:07:36;2.38;;;1.73;;
10005;SDS011;5042;42.626;23.382;2023-08-31T14:10:03;1.77;;;1.38;;
10005;SDS011;5042;42.626;23.382;2023-08-31T14:12:33;2.35;;;1.30;;
10005;SDS011;5042;42.626;23.382;2023-08-31T14:15:00;1.98;;;1.42;;
10005;SDS011;5042;42.626;23.382;2023-08-31T14:17:27;2.28;;;1.65;;
10005;SDS011;5042;42.626;23.382;2023-08-31T14:19:54;3.35;;;1.73;;
10005;SDS011;5042;42.626;23.382;2023-08-31T14:22:21;5.15;;;1.50;;
10005;SDS011;5042;42.626;23.382;2023-08-31T14:24:48;2.13;;;1.63;;
10005;SDS011;5042;42.626;23.382;2023-08-31T14:27:15;3.60;;;1.55;;
10005;SDS011;5042;42.626;23.382;2023-08-31T14:29:43;1.45;;;1.35;;
10005;SDS011;5042;42.626;23.382;2023-08-31T14:32:09;1.83;;;1.40;;
10005;SDS011;5042;42.626;23.382;2023-08-31T14:34:36;1.52;;;1.05;;
10005;SDS011;5042;42.626;23.382;2023-08-31T14:37:03;1.50;;;1.40;;
10005;SDS011;5042;42.626;23.382;2023-08-31T14:39:29;2.33;;;1.95;;
10005;SDS011;5042;42.626;23.382;2023-08-31T14:41:58;2.42;;;1.85;;
10005;SDS011;5042;42.626;23.382;2023-08-31T14:44:25;4.15;;;1.80;;
10005;SDS011;5042;42.626;23.382;2023-08-31T14:46:53;2.08;;;1.58;;
10005;SDS011;5042;42.626;23.382;2023-08-31T14:49:21;2.03;;;1.77;;
10005;SDS011;5042;42.626;23.382;2023-08-31T14:51:50;3.20;;;1.92;;